| |
Missouri Department of Transportation

Social Media Facebook Twitter Flickr Blog YouTube RSS

Current AWOS Information

 
AWOS Home - General Info for all Airports
Current AWOS for all Airports - Current METAR for all Airports
Glossary - Disclaimer - Other Links


LEBANON--FLOYD W JONES LEBANON--KLBO
 
Recent AWOS History
 
10/02/14     11:22 AM CDT      16:22 GMT
Air Temperature 76°F (24°C ) 1st Cloud Layer Clear
Dew Point 64°F (18°C) 2nd Cloud Layer  
Barometric Pressure 29.83 in Hg. 3rd Cloud Layer  
Wind Speed 10 mph (9 knots) Density Altitude 2900 feet
Peak Wind Gusts   Variable Wind Directions  
Wind Direction Quadrant(150°) Variable Visibility  
Visibility 10 statute miles  

Thunderstorm and Precipitation Identification:  Thunderstorm In The Vicinity
Thunderstorm Remarks:  Lightning Vicinity And Distant South-West Through North-East

Current METAR Record: METAR KLBO 021625Z AUTO 15010KT 10SM VCTS CLR 24/18 A2983 RMK AO2 LTG DSNT SW THRU NE

 

 

 

About Us
How Do I...
Contact Us
Missouri Department of Transportation
Central Office
105 W. Capitol Avenue
Jefferson City, MO 65102
1-888-ASK-MODOT (275-6636)
1-866-831-6277 (Motor Carrier Services)
Drivers License Offices
horz_bar
| | |
Missouri State Government
© 2013 Missouri Department of Transportation. All Rights Reserved.   Privacy Policy.
 
 
 
 
RSS FeedYoutubeBlogFlickrTwitter Facebook